O'neill, Nebraska
Current Conditions -  °F | °C
As of 7:55 AM on Monday 20 Oct 2014 (Local Time) from KONL Reporting Station
Clear Clear  
Wind Chill: 40°   Ceiling: Unl
Heat Index: 40°   Visibility: 10mi
Dew Point: 37°   Wind: 3mph
Humidity: 90%   Direction: 330°NNW
Pressure: 30.1"   Gusts: NA
Location:  42.47°N, 98.68°W
Report Text: KONL 201255Z AUTO 33003KT 10SM CLR 04/03 A3010 RMK AO2 T00440029
Loading
Personal Weather Stations






























Interactive Weather Map New forecast layout! Learn more

10-Day Weather Forecast

Advertisements
Track Severe Weather on mobile